Bookmark and Share
Track history (hours):
 

Callsign AMOUK29 (name unknown)

Last reported at 2014-Apr-23 23:00 UTC. Time now 2014-Apr-24 00:09 UTC.
Position N 54°36' W 005°54'.

Barometer 1015.2 mb

NotesDate/timePositionNaut miles runAvg speedWind from/ knotsBaromVisibWave heightAir tempDewpointWater temp
2014-Apr-23 23:00N 54°36' W 005°54'0 0.0 1015.2
2014-Apr-23 22:00N 54°36' W 005°54'0 0.0 1014.8
2014-Apr-23 21:00N 54°36' W 005°54'0 0.0 1014.3
2014-Apr-23 16:00N 54°36' W 005°54'9 9.2 1011.7
2014-Apr-23 15:00N 54°42' W 005°42'1212.0 1011.5
2014-Apr-23 14:00N 54°54' W 005°42'1413.8 1011.4
2014-Apr-23 13:00N 55°06' W 005°54'7 6.9 1010.8
2014-Apr-23 12:00N 55°12' W 006°00'3 3.4 1010.2
2014-Apr-23 11:00N 55°12' W 006°06'0 0.0 1010.4
2014-Apr-23 10:00N 55°12' W 006°06'7 6.9 1010.2
2014-Apr-23 09:00N 55°06' W 006°00'9 9.1 1010.3
2014-Apr-23 08:00N 55°00' W 005°48'1413.8 1010.3
2014-Apr-23 07:00N 54°48' W 005°36'9 9.2 1010.1
2014-Apr-23 06:00N 54°42' W 005°48'7 6.9 1009.2
2014-Apr-23 05:00N 54°36' W 005°54'0 0.0 1008.9 9.2 8.5
2014-Apr-23 04:00N 54°36' W 005°54'0 0.0 1009.0 9.2 8.3
2014-Apr-23 03:00N 54°36' W 005°54'0 0.0 1008.8
2014-Apr-23 02:00N 54°36' W 005°54'0 0.0 1008.6
2014-Apr-23 01:00N 54°36' W 005°54'0 0.0 1008.7
2014-Apr-23 00:00N 54°36' W 005°54'0 0.0 1008.4
2014-Apr-22 23:00N 54°36' W 005°54'1212.0 1007.9
2014-Apr-22 22:00N 54°42' W 005°36'9 9.2 1007.8
2014-Apr-22 21:00N 54°36' W 005°24'1212.0 1007.8
2014-Apr-22 20:00N 54°24' W 005°24'1312.5 1007.5
2014-Apr-22 19:00N 54°12' W 005°30'7 7.0 1006.8
2014-Apr-22 18:00N 54°06' W 005°36'1413.9 1006.2
2014-Apr-22 17:00N 53°54' W 005°48'9 9.3 1006.0
2014-Apr-22 16:00N 53°48' W 006°00'7 7.1 1005.8
2014-Apr-22 15:00N 53°48' W 006°12'9 9.3 1006.1
2014-Apr-22 14:00N 53°42' W 006°00'1212.2 1006.6
2014-Apr-22 13:00N 53°48' W 005°42'4 3.5 1007.0
2014-Apr-22 12:00N 53°48' W 005°36'0 0.0 1006.8
2014-Apr-22 11:00N 53°48' W 005°36'0 0.0 1007.2
2014-Apr-22 10:00N 53°48' W 005°36'0 0.0 1007.4
2014-Apr-22 09:00N 53°48' W 005°36'0 0.0 1007.3
2014-Apr-22 08:00N 53°48' W 005°36'0 0.0 1007.5
2014-Apr-22 07:00N 53°48' W 005°36'0 0.0 1007.5
2014-Apr-22 06:00N 53°48' W 005°36'6 6.0 1007.6
2014-Apr-22 05:00N 53°54' W 005°36'7 7.0 1007.4
2014-Apr-22 04:00N 54°00' W 005°30'6 6.0 1007.8
2014-Apr-22 03:00N 54°06' W 005°30'7 7.0 1008.0
2014-Apr-22 02:00N 54°12' W 005°24'6 6.0 1008.4
2014-Apr-22 01:00N 54°18' W 005°24'7 6.9 1008.8
2014-Apr-22 00:00N 54°24' W 005°18'1212.5 1009.0
2014-Apr-21 23:00N 54°36' W 005°24'7 6.9 1009.8
2014-Apr-21 22:00N 54°42' W 005°30'1010.4 1009.1
2014-Apr-21 21:00N 54°42' W 005°48'7 6.9 1009.4
2014-Apr-21 20:00N 54°36' W 005°54'0 0.0 1009.0
2014-Apr-21 18:00N 54°36' W 005°54'0 0.0 1008.8 16.4 8.0
2014-Apr-21 17:00N 54°36' W 005°54'0 0.0 1008.7 17.3 8.7
2014-Apr-21 13:00N 54°36' W 005°54'0 0.0 1009.8 15.2 9.0
2014-Apr-21 11:00N 54°36' W 005°54'0 0.0 1010.4 12.1 9.0
2014-Apr-21 10:00N 54°36' W 005°54'0 0.0 1010.5 10.6 8.8
2014-Apr-21 08:00N 54°36' W 005°54'0 0.0 1010.0
2014-Apr-21 07:00N 54°36' W 005°54'0 0.0 1009.7 9.7 8.4
2014-Apr-21 06:00N 54°36' W 005°54'0 0.0 1009.5 9.4 7.7
2014-Apr-21 03:00N 54°36' W 005°54'0 0.0 1009.4 9.0 6.5
2014-Apr-21 02:00N 54°36' W 005°54'0 0.0 1008.9 9.2 6.1
2014-Apr-21 00:00N 54°36' W 005°54'0 0.0 1010.6 9.7 5.6
2014-Apr-20 23:00N 54°36' W 005°54'0 0.0 1010.9 10.2 5.4
2014-Apr-20 22:00N 54°36' W 005°54'0 0.0 1012.0 10.9 6.2
2014-Apr-20 20:00N 54°36' W 005°54'0 0.0 1011.9 12.0 7.0
2014-Apr-20 17:00N 54°36' W 005°54'0 0.0 1012.5
2014-Apr-20 16:00N 54°36' W 005°54'0 0.0 1012.9 13.5 5.2
2014-Apr-20 14:00N 54°36' W 005°54'0 0.0 1014.4 11.5 5.8
2014-Apr-20 13:00N 54°36' W 005°54'0 0.0 1014.9 10.6 6.0
2014-Apr-20 12:00N 54°36' W 005°54'0 0.0 1015.4 10.5 5.0
2014-Apr-20 11:00N 54°36' W 005°54'0 0.0 1015.7 9.9 6.2
2014-Apr-20 10:00N 54°36' W 005°54'0 0.0 1016.5 9.5 4.6
2014-Apr-20 09:00N 54°36' W 005°54'0 0.0 1016.9 8.8 5.5
2014-Apr-20 07:00N 54°36' W 005°54'0 0.0 1017.5 7.8 6.0
2014-Apr-20 05:00N 54°36' W 005°54'0 0.0 1017.3 7.3 5.2
2014-Apr-20 04:00N 54°36' W 005°54'0 0.0 1017.6 7.4 4.7
2014-Apr-20 03:00N 54°36' W 005°54'0 0.0 1017.8 7.4 4.2
2014-Apr-20 02:00N 54°36' W 005°54'0 0.0 1018.3 7.3 4.1
2014-Apr-19 23:00N 54°36' W 005°54'0 0.0 1018.9 8.0 3.2
2014-Apr-19 22:00N 54°36' W 005°54'0 0.0 1019.0 7.9 2.7
2014-Apr-19 21:00N 54°36' W 005°54'0 0.0 1019.1 8.1 2.9
2014-Apr-19 20:00N 54°36' W 005°54'0 0.0 1019.2 8.7 2.7
2014-Apr-19 19:00N 54°36' W 005°54'0 0.0 1019.1 9.2 2.3
2014-Apr-19 17:00N 54°36' W 005°54'0 0.0 1019.4
2014-Apr-19 16:00N 54°36' W 005°54'0 0.0 1019.1
2014-Apr-19 15:00N 54°36' W 005°54'0 0.0 1019.0
2014-Apr-19 14:00N 54°36' W 005°54'0 0.0 1019.4
2014-Apr-19 13:00N 54°36' W 005°54'0 0.0 1019.7
2014-Apr-19 12:00N 54°36' W 005°54'0 0.0 1019.7
2014-Apr-19 11:00N 54°36' W 005°54'0 0.0 1019.9
2014-Apr-19 10:00N 54°36' W 005°54'0 0.0 1020.0
2014-Apr-19 07:00N 54°36' W 005°54'0 0.0 1020.1
2014-Apr-19 06:00N 54°36' W 005°54'0 0.0 1020.2
2014-Apr-19 05:00N 54°36' W 005°54'0 0.0 1020.1
2014-Apr-19 04:00N 54°36' W 005°54'0 0.0 1020.2
2014-Apr-19 03:00N 54°36' W 005°54'0 0.0 1020.3
2014-Apr-19 02:00N 54°36' W 005°54'0 0.0 1020.7
2014-Apr-19 01:00N 54°36' W 005°54'0 0.0 1020.7
2014-Apr-19 00:00N 54°36' W 005°54'0 0.0 1020.9
2014-Apr-18 23:00N 54°36' W 005°54'0 0.0 1021.3
2014-Apr-18 22:00N 54°36' W 005°54'0 0.0 1021.5
2014-Apr-18 16:00N 54°36' W 005°54'0 0.0 1021.6
2014-Apr-18 15:00N 54°36' W 005°54'0 0.0 1022.0
2014-Apr-18 14:00N 54°36' W 005°54'0 0.0 1022.4
2014-Apr-18 13:00N 54°36' W 005°54'0 0.0 1022.6
2014-Apr-18 12:00N 54°36' W 005°54'0 0.0 1023.0
2014-Apr-18 11:00N 54°36' W 005°54'0 0.0 1023.5
2014-Apr-18 10:00N 54°36' W 005°54'0 0.0 1023.7
2014-Apr-18 09:00N 54°36' W 005°54'0 0.0 1023.5
2014-Apr-18 07:00N 54°36' W 005°54'0 0.0 1023.5
2014-Apr-18 05:00N 54°36' W 005°54'0 0.0 1022.9
2014-Apr-18 04:00N 54°36' W 005°54'0 0.0 1022.4
2014-Apr-18 03:00N 54°36' W 005°54'0 0.0 1022.5
2014-Apr-18 02:00N 54°36' W 005°54'0 0.0 1022.7
2014-Apr-18 01:00N 54°36' W 005°54'0 0.0 1022.7
2014-Apr-18 00:00N 54°36' W 005°54'0 0.0 1022.6
2014-Apr-17 23:00N 54°36' W 005°54'0 0.0 1022.3
2014-Apr-17 22:00N 54°36' W 005°54'0 0.0 1022.5
2014-Apr-17 21:00N 54°36' W 005°54'0 0.0 1022.0
2014-Apr-17 18:00N 54°36' W 005°54'0 0.0 1020.8 10.6 2.3
2014-Apr-17 14:00N 54°36' W 005°54'0 0.0 1018.9
2014-Apr-17 13:00N 54°36' W 005°54'0 0.0 1018.5
2014-Apr-17 12:00N 54°36' W 005°54'0 0.0 1018.1
2014-Apr-17 11:00N 54°36' W 005°54'0 0.0 1018.0
2014-Apr-17 10:00N 54°36' W 005°54'0 0.0 1018.1
2014-Apr-17 09:00N 54°36' W 005°54'0 0.0 1018.2
2014-Apr-17 08:00N 54°36' W 005°54'0 0.0 1018.7
2014-Apr-17 05:00N 54°36' W 005°54'0 0.0 1018.0
2014-Apr-17 04:00N 54°36' W 005°54'0 0.0 1017.4
2014-Apr-17 03:00N 54°36' W 005°54'0 0.0 1017.5
2014-Apr-17 02:00N 54°36' W 005°54'0 0.0 1017.8
2014-Apr-17 01:00N 54°36' W 005°54'0 0.0 1017.9
2014-Apr-17 00:00N 54°36' W 005°54'0 0.0 1017.9
2014-Apr-16 23:00N 54°36' W 005°54'0 0.0 1017.9
2014-Apr-16 22:00N 54°36' W 005°54'0 0.0 1017.9
2014-Apr-16 21:00N 54°36' W 005°54'0 0.0 1018.2
2014-Apr-16 15:00N 54°36' W 005°54'15 7.6 1020.6
2014-Apr-16 13:00N 54°42' W 005°30'1212.5 1021.7
2014-Apr-16 12:00N 54°30' W 005°24'7 6.9 1022.8
2014-Apr-16 11:00N 54°24' W 005°18'1413.9 1023.6
2014-Apr-16 10:00N 54°12' W 005°30'7 7.0 1023.7
2014-Apr-16 09:00N 54°12' W 005°42'0 0.0 1023.4
2014-Apr-16 08:00N 54°12' W 005°42'7 7.0 1023.9
2014-Apr-16 07:00N 54°06' W 005°48'6 6.0 1024.8
2014-Apr-16 06:00N 54°00' W 005°48'6 6.0 1024.9
2014-Apr-16 05:00N 53°54' W 005°48'4 3.5 1025.0
2014-Apr-16 04:00N 53°54' W 005°42'0 0.0 1025.5
2014-Apr-16 03:00N 53°54' W 005°42'0 0.0 1025.4
2014-Apr-16 02:00N 53°54' W 005°42'4 3.5 1026.0
2014-Apr-16 01:00N 53°54' W 005°48'0 0.0 1025.5
2014-Apr-16 00:00N 53°54' W 005°48'6 6.0 1025.8
2014-Apr-15 23:00N 54°00' W 005°48'0 0.0 1026.0
2014-Apr-15 22:00N 54°00' W 005°48'0 0.0 1025.9
2014-Apr-15 21:00N 54°00' W 005°48'6 6.0 1026.0
2014-Apr-15 20:00N 54°06' W 005°48'4 3.5 1025.6
2014-Apr-15 19:00N 54°06' W 005°42'4 1.8 1025.3
2014-Apr-15 17:00N 54°06' W 005°48'1312.5 1026.6
2014-Apr-15 16:00N 53°54' W 005°54'0 0.0 1026.9
2014-Apr-15 15:00N 53°54' W 005°54'4 3.5 1027.3
2014-Apr-15 14:00N 53°54' W 006°00'4 3.5 1027.5
2014-Apr-15 13:00N 53°54' W 006°06'7 7.0 1028.0
2014-Apr-15 12:00N 53°48' W 006°00'0 0.0 1028.3
2014-Apr-15 11:00N 53°48' W 006°00'6 6.0 1028.5
2014-Apr-15 10:00N 53°42' W 006°00'0 0.0 1028.6
2014-Apr-15 09:00N 53°42' W 006°00'0 0.0 1028.4
2014-Apr-15 08:00N 53°42' W 006°00'7 7.0 1028.8
2014-Apr-15 07:00N 53°36' W 005°54'0 0.0 1028.7
2014-Apr-15 06:00N 53°36' W 005°54'0 0.0 1028.4
2014-Apr-15 05:00N 53°36' W 005°54'0 0.0 1028.4
2014-Apr-15 04:00N 53°36' W 005°54'6 6.0 1028.4
2014-Apr-15 03:00N 53°42' W 005°54'0 0.0 1028.2
2014-Apr-15 02:00N 53°42' W 005°54'6 6.0 1028.4
2014-Apr-15 01:00N 53°48' W 005°54'6 6.0 1028.5
2014-Apr-15 00:00N 53°54' W 005°54'6 6.0 1028.6
2014-Apr-14 23:00N 54°00' W 005°54'0 0.0 1028.6
2014-Apr-14 22:00N 54°00' W 005°54'6 6.0 1028.6
2014-Apr-14 21:00N 54°06' W 005°54'0 0.0 1028.8
2014-Apr-14 20:00N 54°06' W 005°54'0 0.0 1028.7
2014-Apr-14 19:00N 54°06' W 005°54'0 0.0 1028.6
2014-Apr-14 18:00N 54°06' W 005°54'6 6.0 1028.8
2014-Apr-14 17:00N 54°00' W 005°54'1312.5 1028.4
2014-Apr-14 16:00N 53°48' W 005°48'0 0.0 1028.3
2014-Apr-14 15:00N 53°48' W 005°48'0 0.0 1028.3
2014-Apr-14 14:00N 53°48' W 005°48'6 6.0 1028.1
2014-Apr-14 13:00N 53°42' W 005°48'0 0.0 1028.2
2014-Apr-14 12:00N 53°42' W 005°48'6 6.0 1028.2
2014-Apr-14 11:00N 53°48' W 005°48'7 7.0 1027.5
2014-Apr-14 10:00N 53°54' W 005°42'6 6.0 1027.4
2014-Apr-14 09:00N 54°00' W 005°42'9 9.3 1026.8
2014-Apr-14 08:00N 54°06' W 005°30'7 7.0 1025.7
2014-Apr-14 07:00N 54°06' W 005°18'0 0.0 1025.5
2014-Apr-14 06:00N 54°06' W 005°18'0 0.0 1025.0
2014-Apr-14 05:00N 54°06' W 005°18'4 3.5 1024.6
2014-Apr-14 04:00N 54°06' W 005°24'4 3.5 1024.3
2014-Apr-14 03:00N 54°06' W 005°30'7 7.0 1023.8
2014-Apr-14 02:00N 54°06' W 005°42'0 0.0 1023.7
2014-Apr-14 01:00N 54°06' W 005°42'0 0.0 1023.3
2014-Apr-14 00:00N 54°06' W 005°42'4 3.5 1022.6
2014-Apr-13 23:00N 54°06' W 005°48'   1022.2

Dump ship's entire track history

sailing weather and tide predictions

Ship Status Report: callsign AMOUK29